createdAt,value
2023-03-06T00:04:31.041Z,56.17
2023-03-06T00:09:32.830Z,55.50
2023-03-06T00:14:34.612Z,55.92
2023-03-06T00:19:36.408Z,55.72
2023-03-06T00:24:38.296Z,55.42
2023-03-06T00:29:40.116Z,55.48
2023-03-06T00:34:42.175Z,55.19
2023-03-06T00:39:44.284Z,55.40
2023-03-06T00:44:46.492Z,55.44
2023-03-06T00:49:48.388Z,55.70
2023-03-06T00:54:50.248Z,55.31
2023-03-06T00:59:52.015Z,55.50
2023-03-06T01:04:55.880Z,55.27
2023-03-06T01:09:57.641Z,55.51
2023-03-06T01:14:59.460Z,55.08
2023-03-06T01:20:01.279Z,54.92
2023-03-06T01:25:03.058Z,54.82
2023-03-06T01:30:05.721Z,55.13
2023-03-06T01:35:07.801Z,54.88
2023-03-06T01:40:12.435Z,54.80
2023-03-06T01:45:14.173Z,54.98
2023-03-06T01:50:16.211Z,55.23
2023-03-06T01:55:22.017Z,54.99
2023-03-06T02:00:26.933Z,54.92
2023-03-06T02:05:28.700Z,55.40
2023-03-06T02:10:30.616Z,55.02
2023-03-06T02:15:32.415Z,55.18
2023-03-06T02:20:48.734Z,55.40
2023-03-06T02:25:52.954Z,55.22
2023-03-06T02:30:56.252Z,54.92
2023-03-06T02:36:00.819Z,54.90
2023-03-06T02:41:06.931Z,55.11
2023-03-06T02:46:08.779Z,55.21
2023-03-06T02:51:10.584Z,54.95
2023-03-06T02:56:12.549Z,55.10
2023-03-06T03:01:16.693Z,55.09
2023-03-06T03:06:18.660Z,55.41
2023-03-06T03:11:20.875Z,55.02
2023-03-06T03:16:22.733Z,55.27
2023-03-06T03:21:24.648Z,54.79
2023-03-06T03:26:29.008Z,54.51
2023-03-06T03:31:48.619Z,54.93
2023-03-06T03:36:50.597Z,54.73
2023-03-06T03:41:52.728Z,55.08
2023-03-06T03:46:55.109Z,54.81
2023-03-06T03:51:58.055Z,55.02
2023-03-06T03:57:02.623Z,54.68
2023-03-06T04:02:08.774Z,54.64
2023-03-06T04:07:18.250Z,54.76
2023-03-06T04:12:20.989Z,55.12
2023-03-06T04:17:23.036Z,54.61
2023-03-06T04:28:03.052Z,54.55
2023-03-06T04:33:06.117Z,54.72
2023-03-06T04:38:08.296Z,54.30
2023-03-06T04:43:10.319Z,54.71
2023-03-06T04:48:14.883Z,54.94
2023-03-06T04:53:19.624Z,54.65
2023-03-06T04:58:21.636Z,54.40
2023-03-06T05:03:23.391Z,54.67
2023-03-06T05:08:25.163Z,54.42
2023-03-06T05:13:28.237Z,54.68
2023-03-06T05:18:30.332Z,54.65
2023-03-06T05:23:34.070Z,54.13
2023-03-06T05:28:35.980Z,54.18
2023-03-06T05:33:37.802Z,54.26
2023-03-06T05:38:39.544Z,54.52
2023-03-06T05:43:41.730Z,54.36
2023-03-06T05:48:45.302Z,54.47
2023-03-06T05:53:48.239Z,54.61
2023-03-06T05:58:51.015Z,54.07
2023-03-06T06:03:52.840Z,54.12
2023-03-06T06:08:55.873Z,54.72
2023-03-06T06:13:57.709Z,54.44
2023-03-06T06:18:59.523Z,53.86
2023-03-06T06:24:01.293Z,53.80
2023-03-06T06:29:04.779Z,53.47
2023-03-06T06:34:08.040Z,54.23
2023-03-06T06:39:14.268Z,54.01
2023-03-06T06:44:16.336Z,53.75
2023-03-06T06:49:18.082Z,53.59
2023-03-06T06:54:20.236Z,53.60
2023-03-06T06:59:23.843Z,53.72
2023-03-06T07:04:25.769Z,53.58
2023-03-06T07:09:27.621Z,53.95
2023-03-06T07:14:29.434Z,53.87
2023-03-06T07:19:31.289Z,53.13
2023-03-06T07:24:33.353Z,53.83
2023-03-06T07:29:35.188Z,53.28
2023-03-06T07:34:37.845Z,53.10
2023-03-06T07:39:39.745Z,52.64
2023-03-06T07:44:41.728Z,52.71
2023-03-06T07:49:43.472Z,52.83
2023-03-06T07:54:45.212Z,52.43
2023-03-06T07:59:46.960Z,52.41
2023-03-06T08:04:53.634Z,52.98
2023-03-06T08:09:55.388Z,52.50
2023-03-06T08:14:57.206Z,52.15
2023-03-06T08:19:59.088Z,51.90
2023-03-06T08:25:01.014Z,51.93
2023-03-06T08:30:03.135Z,51.75
2023-03-06T08:35:05.562Z,52.32
2023-03-06T08:40:08.148Z,51.94
2023-03-06T08:45:10.194Z,52.21
2023-03-06T08:50:12.128Z,51.67
2023-03-06T08:55:15.147Z,52.42
2023-03-06T09:00:17.649Z,51.59
2023-03-06T09:05:19.546Z,51.91
2023-03-06T09:10:23.979Z,51.78
2023-03-06T09:15:26.101Z,51.47
2023-03-06T09:20:27.893Z,51.17
2023-03-06T09:25:29.652Z,51.06
2023-03-06T09:30:31.478Z,50.94
2023-03-06T09:35:33.295Z,50.23
2023-03-06T09:40:51.271Z,50.41
2023-03-06T09:45:53.881Z,50.32
2023-03-06T09:51:03.121Z,49.77
2023-03-06T09:56:18.021Z,50.11
2023-03-06T10:01:26.975Z,49.50
2023-03-06T10:06:33.215Z,49.61
2023-03-06T10:11:54.186Z,49.14
2023-03-06T10:16:56.468Z,49.08
2023-03-06T10:22:19.284Z,48.59
2023-03-06T10:27:39.964Z,49.18
2023-03-06T10:32:57.934Z,49.31
2023-03-06T10:38:12.473Z,49.50
2023-03-06T10:43:14.447Z,49.66
2023-03-06T10:48:20.426Z,49.08
2023-03-06T10:53:25.941Z,49.07
2023-03-06T10:58:30.519Z,48.66
2023-03-06T11:03:33.296Z,48.72
2023-03-06T11:08:35.725Z,49.25
2023-03-06T11:13:39.768Z,49.83
2023-03-06T11:18:42.930Z,50.70
2023-03-06T11:23:47.229Z,51.13
2023-03-06T11:29:04.530Z,51.39
2023-03-06T11:34:12.427Z,51.34
2023-03-06T11:39:36.394Z,51.34
2023-03-06T11:44:44.028Z,51.33
2023-03-06T11:49:51.564Z,51.78
2023-03-06T11:54:56.430Z,52.46
2023-03-06T12:00:10.468Z,52.70
2023-03-06T12:10:51.899Z,52.38
2023-03-06T12:16:13.234Z,52.77
2023-03-06T12:21:48.886Z,52.89
2023-03-06T12:27:13.304Z,53.12
2023-03-06T12:32:41.433Z,54.00
2023-03-06T12:37:46.212Z,54.03
2023-03-06T12:43:06.286Z,53.79
2023-03-06T12:48:29.594Z,53.40
2023-03-06T12:53:33.308Z,53.30
2023-03-06T12:58:46.513Z,53.43
2023-03-06T13:04:13.138Z,53.12
2023-03-06T13:09:26.669Z,53.17
2023-03-06T13:14:42.182Z,53.09
2023-03-06T13:19:48.652Z,53.97
2023-03-06T13:25:19.145Z,54.92
2023-03-06T13:30:39.504Z,55.17
2023-03-06T13:35:41.387Z,56.01
2023-03-06T13:40:43.282Z,56.43
2023-03-06T13:45:47.177Z,56.42
2023-03-06T13:50:49.911Z,56.96
2023-03-06T14:01:44.501Z,57.13
2023-03-06T14:06:50.906Z,56.94
2023-03-06T14:12:06.888Z,56.83
2023-03-06T14:17:20.641Z,56.47
2023-03-06T14:22:24.536Z,56.38
2023-03-06T14:27:42.360Z,56.21
2023-03-06T14:32:45.011Z,56.00
2023-03-06T14:37:50.308Z,56.27
2023-03-06T14:43:27.902Z,56.42
2023-03-06T14:48:40.375Z,56.21
2023-03-06T14:53:45.005Z,56.24
2023-03-06T14:58:55.863Z,56.20
2023-03-06T15:04:00.375Z,56.00
2023-03-06T15:09:13.360Z,55.16
2023-03-06T15:14:20.185Z,55.49
2023-03-06T15:19:22.842Z,55.16
2023-03-06T15:24:36.314Z,55.46
2023-03-06T15:29:38.452Z,55.40
2023-03-06T15:34:40.418Z,55.66
2023-03-06T15:39:43.080Z,55.68
2023-03-06T15:44:50.625Z,55.40
2023-03-06T15:49:53.372Z,55.26
2023-03-06T15:54:55.175Z,55.19
2023-03-06T15:59:59.767Z,55.74
2023-03-06T16:05:02.614Z,55.10
2023-03-06T16:10:04.701Z,55.53
2023-03-06T16:15:17.564Z,55.65
2023-03-06T16:20:22.103Z,54.86
2023-03-06T16:25:27.820Z,55.22
2023-03-06T16:30:32.180Z,55.68
2023-03-06T16:35:34.101Z,56.16
2023-03-06T16:40:41.528Z,56.79
2023-03-06T16:45:44.005Z,57.06
2023-03-06T16:50:46.093Z,57.47
2023-03-06T16:55:48.092Z,57.69
2023-03-06T17:00:49.921Z,57.21
2023-03-06T17:05:51.722Z,56.99
2023-03-06T17:10:53.480Z,57.15
2023-03-06T17:15:59.530Z,56.81
2023-03-06T17:21:01.459Z,57.60
2023-03-06T17:26:08.566Z,57.42
2023-03-06T17:31:22.428Z,57.35
2023-03-06T17:36:24.219Z,57.53
2023-03-06T17:41:26.663Z,58.00
2023-03-06T17:46:28.645Z,57.79
2023-03-06T17:51:30.468Z,58.02
2023-03-06T17:56:32.319Z,58.08
2023-03-06T18:01:34.199Z,58.15
2023-03-06T18:06:36.073Z,58.51
2023-03-06T18:11:37.843Z,58.12
2023-03-06T18:16:39.657Z,58.18
2023-03-06T18:21:41.464Z,57.94
2023-03-06T18:26:43.314Z,57.97
2023-03-06T18:31:46.999Z,58.57
2023-03-06T18:36:51.621Z,58.42
2023-03-06T18:41:53.585Z,58.53
2023-03-06T18:46:55.328Z,58.32
2023-03-06T18:51:57.138Z,58.33
2023-03-06T18:56:58.938Z,58.61
2023-03-06T19:02:00.693Z,57.93
2023-03-06T19:07:02.586Z,57.74
2023-03-06T19:12:04.753Z,58.23
2023-03-06T19:17:06.552Z,58.20
2023-03-06T19:22:08.294Z,57.38
2023-03-06T19:27:11.504Z,56.91
2023-03-06T19:32:13.409Z,56.78
2023-03-06T19:37:15.244Z,56.90
2023-03-06T19:42:17.614Z,57.47
2023-03-06T19:47:19.512Z,57.18
2023-03-06T19:52:21.357Z,57.44
2023-03-06T19:57:23.104Z,57.57
2023-03-06T20:02:27.198Z,57.88
2023-03-06T20:07:28.982Z,57.09
2023-03-06T20:17:52.973Z,57.47
2023-03-06T20:22:54.888Z,57.68
2023-03-06T20:27:56.715Z,57.55
2023-03-06T20:32:58.515Z,57.61
2023-03-06T20:38:00.797Z,57.38
2023-03-06T20:43:02.627Z,57.59
2023-03-06T20:48:04.428Z,58.21
2023-03-06T20:53:06.475Z,57.74
2023-03-06T20:58:08.365Z,57.36
2023-03-06T21:03:10.142Z,57.55
2023-03-06T21:08:11.911Z,58.20
2023-03-06T21:13:14.616Z,57.18
2023-03-06T21:18:16.445Z,57.00
2023-03-06T21:23:18.202Z,57.16
2023-03-06T21:28:19.929Z,57.71
2023-03-06T21:33:21.745Z,58.24
2023-03-06T21:38:23.604Z,58.22
2023-03-06T21:43:25.346Z,58.30
2023-03-06T21:48:27.111Z,58.43
2023-03-06T21:53:28.849Z,57.71
2023-03-06T21:58:31.540Z,58.10
2023-03-06T22:03:33.331Z,57.71
2023-03-06T22:08:35.112Z,57.70
2023-03-06T22:13:38.267Z,58.13
2023-03-06T22:18:40.415Z,58.17
2023-03-06T22:23:42.837Z,57.93
2023-03-06T22:28:45.029Z,57.74
2023-03-06T22:33:47.113Z,58.34
2023-03-06T22:38:49.507Z,57.72
2023-03-06T22:43:51.322Z,57.48
2023-03-06T22:48:55.226Z,57.92
2023-03-06T22:53:57.111Z,57.28
2023-03-06T22:58:59.533Z,57.81
2023-03-06T23:04:04.375Z,57.50
2023-03-06T23:09:16.155Z,57.74
2023-03-06T23:14:36.457Z,57.88
2023-03-06T23:19:56.885Z,57.17
2023-03-06T23:25:17.179Z,57.82
2023-03-06T23:30:19.117Z,57.87
2023-03-06T23:35:20.945Z,57.28
2023-03-06T23:40:22.705Z,57.72
2023-03-06T23:45:24.591Z,57.29
2023-03-06T23:50:26.409Z,57.09
2023-03-06T23:55:28.180Z,57.62
